createdAt,value
2023-03-16T00:01:07.266Z,5.20
2023-03-16T00:03:34.816Z,4.70
2023-03-16T00:06:01.419Z,5.33
2023-03-16T00:08:27.973Z,5.50
2023-03-16T00:10:54.546Z,4.77
2023-03-16T00:13:26.229Z,4.70
2023-03-16T00:15:59.181Z,5.10
2023-03-16T00:18:28.448Z,4.43
2023-03-16T00:20:58.037Z,4.63
2023-03-16T00:23:28.662Z,4.20
2023-03-16T00:25:55.237Z,4.10
2023-03-16T00:28:22.421Z,4.40
2023-03-16T00:30:49.372Z,4.03
2023-03-16T00:33:16.048Z,4.00
2023-03-16T00:35:50.200Z,3.73
2023-03-16T00:38:18.826Z,3.97
2023-03-16T00:40:46.663Z,4.43
2023-03-16T00:43:18.557Z,4.77
2023-03-16T00:45:46.025Z,4.20
2023-03-16T00:48:12.626Z,3.83
2023-03-16T00:50:39.614Z,3.57
2023-03-16T00:53:06.258Z,4.50
2023-03-16T00:55:33.364Z,3.70
2023-03-16T00:57:59.914Z,3.73
2023-03-16T01:00:28.516Z,4.57
2023-03-16T01:02:55.363Z,3.70
2023-03-16T01:05:22.536Z,4.27
2023-03-16T01:07:49.160Z,3.80
2023-03-16T01:10:16.052Z,3.80
2023-03-16T01:12:45.086Z,3.90
2023-03-16T01:15:11.905Z,3.63
2023-03-16T01:17:38.677Z,3.13
2023-03-16T01:20:08.247Z,4.10
2023-03-16T01:22:35.024Z,3.47
2023-03-16T01:25:01.687Z,3.33
2023-03-16T01:27:28.314Z,2.50
2023-03-16T01:29:54.877Z,3.07
2023-03-16T01:32:21.449Z,3.30
2023-03-16T01:34:48.005Z,3.00
2023-03-16T01:37:14.566Z,3.37
2023-03-16T01:39:41.181Z,3.40
2023-03-16T01:42:07.896Z,3.40
2023-03-16T01:44:54.335Z,3.00
2023-03-16T01:47:22.252Z,3.57
2023-03-16T01:49:54.804Z,2.90
2023-03-16T01:52:25.139Z,2.83
2023-03-16T01:54:57.200Z,3.10
2023-03-16T01:57:27.193Z,2.97
2023-03-16T01:59:59.257Z,3.10
2023-03-16T02:02:28.798Z,3.03
2023-03-16T02:05:10.445Z,2.93
2023-03-16T02:07:42.961Z,2.57
2023-03-16T02:10:12.283Z,3.10
2023-03-16T02:12:39.281Z,2.53
2023-03-16T02:15:06.601Z,2.73
2023-03-16T02:17:35.373Z,2.53
2023-03-16T02:20:23.105Z,2.70
2023-03-16T02:22:54.090Z,2.40
2023-03-16T02:25:29.120Z,2.40
2023-03-16T02:28:12.777Z,2.63
2023-03-16T02:30:39.350Z,2.73
2023-03-16T02:33:06.138Z,2.00
2023-03-16T02:35:33.585Z,2.47
2023-03-16T02:38:01.690Z,2.53
2023-03-16T02:40:33.679Z,2.87
2023-03-16T02:43:08.701Z,2.20
2023-03-16T02:45:44.915Z,3.00
2023-03-16T02:48:18.009Z,2.07
2023-03-16T02:50:51.868Z,2.23
2023-03-16T02:53:19.568Z,2.67
2023-03-16T02:55:46.372Z,3.00
2023-03-16T02:58:13.991Z,2.67
2023-03-16T03:00:42.232Z,1.83
2023-03-16T03:03:09.464Z,1.97
2023-03-16T03:05:37.081Z,2.30
2023-03-16T03:08:05.035Z,1.93
2023-03-16T03:10:31.708Z,2.03
2023-03-16T03:12:58.766Z,2.27
2023-03-16T03:15:25.388Z,2.00
2023-03-16T03:17:52.000Z,2.60
2023-03-16T03:20:19.665Z,2.30
2023-03-16T03:22:48.558Z,2.60
2023-03-16T03:25:17.266Z,2.27
2023-03-16T03:27:44.806Z,2.33
2023-03-16T03:30:24.374Z,3.17
2023-03-16T03:32:52.376Z,2.03
2023-03-16T03:35:19.768Z,2.00
2023-03-16T03:37:47.903Z,2.20
2023-03-16T03:40:17.528Z,2.53
2023-03-16T03:42:44.311Z,2.30
2023-03-16T03:45:12.801Z,1.90
2023-03-16T03:47:40.671Z,2.23
2023-03-16T03:50:08.940Z,2.40
2023-03-16T03:52:35.607Z,2.50
2023-03-16T03:55:02.225Z,2.80
2023-03-16T03:57:28.874Z,2.80
2023-03-16T03:59:55.497Z,2.20
2023-03-16T04:02:22.286Z,2.40
2023-03-16T04:04:49.015Z,2.30
2023-03-16T04:07:15.774Z,2.57
2023-03-16T04:09:42.331Z,1.90
2023-03-16T04:12:09.156Z,2.20
2023-03-16T04:14:35.974Z,2.30
2023-03-16T04:17:04.588Z,2.00
2023-03-16T04:19:31.208Z,2.20
2023-03-16T04:21:57.868Z,1.97
2023-03-16T04:24:24.572Z,2.20
2023-03-16T04:26:51.157Z,2.13
2023-03-16T04:29:20.595Z,2.00
2023-03-16T04:31:47.427Z,1.97
2023-03-16T04:34:14.281Z,2.13
2023-03-16T04:36:43.791Z,2.20
2023-03-16T04:39:10.581Z,1.80
2023-03-16T04:41:37.203Z,2.50
2023-03-16T04:44:04.644Z,2.37
2023-03-16T04:46:31.606Z,1.90
2023-03-16T04:48:58.610Z,2.13
2023-03-16T04:51:26.064Z,2.10
2023-03-16T04:53:53.145Z,2.40
2023-03-16T04:56:20.032Z,1.80
2023-03-16T04:58:48.874Z,2.07
2023-03-16T05:01:17.065Z,2.00
2023-03-16T05:03:43.954Z,2.47
2023-03-16T05:06:12.043Z,2.10
2023-03-16T05:08:38.966Z,2.70
2023-03-16T05:11:05.660Z,2.07
2023-03-16T05:13:32.573Z,2.70
2023-03-16T05:15:59.223Z,2.83
2023-03-16T05:18:26.910Z,2.00
2023-03-16T05:20:58.268Z,2.57
2023-03-16T05:23:24.971Z,2.00
2023-03-16T05:25:51.624Z,2.30
2023-03-16T05:28:18.288Z,1.97
2023-03-16T05:30:45.255Z,2.37
2023-03-16T05:33:12.410Z,2.40
2023-03-16T05:35:39.265Z,2.30
2023-03-16T05:38:06.040Z,2.37
2023-03-16T05:40:32.991Z,2.27
2023-03-16T05:43:00.448Z,2.27
2023-03-16T05:45:27.489Z,2.27
2023-03-16T05:47:54.157Z,2.30
2023-03-16T05:50:20.807Z,2.40
2023-03-16T05:52:47.381Z,2.63
2023-03-16T05:55:15.694Z,2.90
2023-03-16T05:57:42.433Z,2.87
2023-03-16T06:00:14.154Z,2.77
2023-03-16T06:02:47.048Z,3.50
2023-03-16T06:05:14.034Z,3.47
2023-03-16T06:07:41.471Z,2.70
2023-03-16T06:10:09.091Z,3.00
2023-03-16T06:12:35.706Z,3.37
2023-03-16T06:15:02.818Z,3.60
2023-03-16T06:17:29.405Z,4.27
2023-03-16T06:19:56.096Z,3.10
2023-03-16T06:22:23.873Z,3.10
2023-03-16T06:24:51.468Z,3.20
2023-03-16T06:27:20.257Z,3.00
2023-03-16T06:29:47.373Z,3.37
2023-03-16T06:32:14.517Z,3.03
2023-03-16T06:34:41.636Z,3.70
2023-03-16T06:37:08.440Z,3.67
2023-03-16T06:39:35.268Z,3.73
2023-03-16T06:42:01.844Z,4.07
2023-03-16T06:44:28.442Z,3.13
2023-03-16T06:46:55.041Z,2.87
2023-03-16T06:49:21.680Z,3.20
2023-03-16T06:51:48.253Z,3.40
2023-03-16T06:54:14.906Z,3.00
2023-03-16T06:56:41.562Z,3.20
2023-03-16T06:59:08.513Z,3.13
2023-03-16T07:01:35.174Z,3.13
2023-03-16T07:04:01.872Z,2.87
2023-03-16T07:06:28.532Z,3.27
2023-03-16T07:08:55.195Z,3.03
2023-03-16T07:11:21.876Z,2.93
2023-03-16T07:13:48.455Z,2.70
2023-03-16T07:16:15.106Z,2.90
2023-03-16T07:18:44.196Z,3.30
2023-03-16T07:21:11.423Z,3.17
2023-03-16T07:23:38.037Z,3.23
2023-03-16T07:26:04.726Z,2.73
2023-03-16T07:28:32.169Z,2.83
2023-03-16T07:31:03.731Z,2.90
2023-03-16T07:33:32.251Z,3.30
2023-03-16T07:35:59.512Z,2.90
2023-03-16T07:38:26.164Z,3.47
2023-03-16T07:40:52.795Z,2.40
2023-03-16T07:43:19.385Z,3.10
2023-03-16T07:45:52.742Z,2.93
2023-03-16T07:48:20.768Z,3.93
2023-03-16T07:50:48.525Z,2.53
2023-03-16T07:53:18.184Z,2.80
2023-03-16T07:55:44.853Z,2.60
2023-03-16T07:58:12.419Z,2.83
2023-03-16T08:00:39.850Z,2.90
2023-03-16T08:03:06.767Z,2.70
2023-03-16T08:05:33.524Z,2.93
2023-03-16T08:08:01.547Z,2.77
2023-03-16T08:10:29.046Z,3.10
2023-03-16T08:12:55.852Z,2.80
2023-03-16T08:15:23.200Z,2.70
2023-03-16T08:17:49.781Z,2.67
2023-03-16T08:20:16.381Z,2.60
2023-03-16T08:22:45.947Z,2.87
2023-03-16T08:25:17.493Z,3.00
2023-03-16T08:27:44.037Z,2.83
2023-03-16T08:30:12.203Z,3.07
2023-03-16T08:32:39.914Z,2.67
2023-03-16T08:35:13.827Z,2.80
2023-03-16T08:37:41.495Z,2.93
2023-03-16T08:40:15.610Z,2.50
2023-03-16T08:42:43.009Z,3.00
2023-03-16T08:45:13.552Z,2.87
2023-03-16T08:47:40.729Z,2.70
2023-03-16T08:50:08.753Z,3.13
2023-03-16T08:52:36.425Z,2.90
2023-03-16T08:55:05.591Z,3.20
2023-03-16T08:57:33.865Z,2.90
2023-03-16T09:00:01.194Z,2.77
2023-03-16T09:02:27.844Z,2.73
2023-03-16T09:04:54.587Z,2.23
2023-03-16T09:07:21.825Z,2.00
2023-03-16T09:09:48.523Z,2.63
2023-03-16T09:12:15.211Z,2.50
2023-03-16T09:14:41.913Z,2.40
2023-03-16T09:17:08.508Z,2.40
2023-03-16T09:19:50.484Z,2.43
2023-03-16T09:22:18.296Z,2.20
2023-03-16T09:24:44.964Z,1.90
2023-03-16T09:27:12.007Z,2.50
2023-03-16T09:29:38.639Z,2.93
2023-03-16T09:32:05.326Z,1.80
2023-03-16T09:34:33.270Z,2.13
2023-03-16T09:37:00.488Z,2.60
2023-03-16T09:39:27.300Z,2.73
2023-03-16T09:41:56.137Z,2.60
2023-03-16T09:44:40.886Z,2.27
2023-03-16T09:47:11.040Z,2.60
2023-03-16T09:49:44.373Z,2.80
2023-03-16T09:52:46.911Z,2.87
2023-03-16T09:55:32.349Z,2.97
2023-03-16T09:58:01.138Z,2.90
2023-03-16T10:00:34.654Z,3.20
2023-03-16T10:03:29.650Z,3.17
2023-03-16T10:06:02.074Z,3.20
2023-03-16T10:08:39.149Z,3.03
2023-03-16T10:11:24.159Z,2.87
2023-03-16T10:14:01.399Z,3.80
2023-03-16T10:16:39.123Z,2.60
2023-03-16T10:19:30.759Z,2.70
2023-03-16T10:22:00.592Z,3.77
2023-03-16T10:24:48.469Z,3.20
2023-03-16T10:27:22.869Z,2.60
2023-03-16T10:29:49.622Z,5.23
2023-03-16T10:32:19.478Z,3.30
2023-03-16T10:34:54.190Z,2.90
2023-03-16T10:37:21.455Z,3.50
2023-03-16T10:39:49.066Z,3.50
2023-03-16T10:42:17.920Z,3.07
2023-03-16T10:44:46.989Z,3.70
2023-03-16T10:47:24.420Z,3.30
2023-03-16T10:49:51.780Z,3.03
2023-03-16T10:52:35.056Z,3.77
2023-03-16T10:55:10.829Z,3.30
2023-03-16T10:57:48.884Z,3.63
2023-03-16T11:00:23.030Z,3.53
2023-03-16T11:02:51.010Z,3.80
2023-03-16T11:05:17.551Z,3.33
2023-03-16T11:07:58.815Z,2.97
2023-03-16T11:10:40.485Z,3.50
2023-03-16T11:13:15.884Z,3.17
2023-03-16T11:15:57.226Z,3.20
2023-03-16T11:18:39.025Z,3.23
2023-03-16T11:21:19.225Z,3.40
2023-03-16T11:23:56.290Z,2.53
2023-03-16T11:26:35.644Z,3.00
2023-03-16T11:29:11.432Z,3.50
2023-03-16T11:31:53.409Z,3.07
2023-03-16T11:34:27.422Z,3.60
2023-03-16T11:37:14.773Z,4.40
2023-03-16T11:40:15.647Z,3.87
2023-03-16T11:43:01.523Z,4.20
2023-03-16T11:45:48.225Z,3.10
2023-03-16T11:48:36.503Z,2.60
2023-03-16T11:51:11.952Z,2.97
2023-03-16T11:53:50.807Z,2.70
2023-03-16T11:56:31.875Z,2.90
2023-03-16T11:59:16.524Z,2.70
2023-03-16T12:02:01.057Z,2.50
2023-03-16T12:05:07.586Z,2.33
2023-03-16T12:07:59.033Z,2.00
2023-03-16T12:10:32.810Z,2.47
2023-03-16T12:13:19.917Z,2.50
2023-03-16T12:15:53.402Z,2.20
2023-03-16T12:18:34.020Z,2.50
2023-03-16T12:21:04.071Z,2.20
2023-03-16T12:23:36.531Z,1.80
2023-03-16T12:26:03.960Z,1.73
2023-03-16T12:28:33.263Z,2.00
2023-03-16T12:31:17.840Z,1.87
2023-03-16T12:34:09.308Z,1.80
2023-03-16T12:36:50.865Z,2.00
2023-03-16T12:40:03.165Z,2.00
2023-03-16T12:42:41.518Z,1.50
2023-03-16T12:45:39.197Z,1.87
2023-03-16T12:48:08.706Z,2.07
2023-03-16T12:50:35.684Z,1.47
2023-03-16T12:53:04.920Z,1.60
2023-03-16T12:55:34.597Z,1.40
2023-03-16T12:58:06.208Z,2.20
2023-03-16T13:00:37.787Z,1.83
2023-03-16T13:03:11.880Z,1.40
2023-03-16T13:05:46.057Z,1.60
2023-03-16T13:08:15.963Z,1.40
2023-03-16T13:10:58.937Z,1.40
2023-03-16T13:13:27.095Z,1.70
2023-03-16T13:16:05.767Z,1.50
2023-03-16T13:18:46.776Z,1.23
2023-03-16T13:21:41.166Z,1.43
2023-03-16T13:24:31.253Z,1.70
2023-03-16T13:27:06.523Z,2.27
2023-03-16T13:29:33.244Z,1.60
2023-03-16T13:32:08.641Z,1.43
2023-03-16T13:34:48.098Z,1.50
2023-03-16T13:37:18.218Z,1.30
2023-03-16T13:39:54.418Z,1.47
2023-03-16T13:42:23.624Z,1.30
2023-03-16T13:44:55.747Z,1.20
2023-03-16T13:47:22.870Z,1.50
2023-03-16T13:49:54.622Z,1.60
2023-03-16T13:52:33.334Z,1.40
2023-03-16T13:55:03.574Z,1.80
2023-03-16T13:57:37.264Z,1.80
2023-03-16T14:00:20.900Z,1.47
2023-03-16T14:02:52.528Z,1.40
2023-03-16T14:05:24.354Z,1.40
2023-03-16T14:07:52.047Z,3.53
2023-03-16T14:10:19.645Z,1.83
2023-03-16T14:12:54.676Z,1.43
2023-03-16T14:15:25.388Z,1.60
2023-03-16T14:17:52.494Z,1.33
2023-03-16T14:20:25.397Z,1.70
2023-03-16T14:22:53.401Z,1.80
2023-03-16T14:25:27.457Z,1.47
2023-03-16T14:28:06.068Z,2.70
2023-03-16T14:30:32.958Z,1.67
2023-03-16T14:33:05.512Z,1.40
2023-03-16T14:35:43.826Z,2.90
2023-03-16T14:38:36.881Z,2.90
2023-03-16T14:41:12.483Z,1.90
2023-03-16T14:43:46.275Z,1.70
2023-03-16T14:46:20.568Z,2.17
2023-03-16T14:48:48.300Z,2.33
2023-03-16T14:51:15.296Z,1.83
2023-03-16T14:53:41.975Z,1.67
2023-03-16T14:56:16.463Z,2.03
2023-03-16T14:58:43.021Z,1.30
2023-03-16T15:01:18.017Z,1.87
2023-03-16T15:03:45.300Z,1.90
2023-03-16T15:06:12.020Z,1.70
2023-03-16T15:08:44.277Z,1.80
2023-03-16T15:11:11.383Z,2.00
2023-03-16T15:13:40.831Z,1.90
2023-03-16T15:16:11.352Z,1.73
2023-03-16T15:18:39.758Z,1.90
2023-03-16T15:21:12.824Z,1.80
2023-03-16T15:23:41.419Z,1.60
2023-03-16T15:26:11.326Z,1.63
2023-03-16T15:28:38.550Z,1.37
2023-03-16T15:31:06.140Z,2.00
2023-03-16T15:33:33.497Z,1.50
2023-03-16T15:36:03.288Z,2.07
2023-03-16T15:38:33.396Z,1.50
2023-03-16T15:41:00.939Z,2.13
2023-03-16T15:43:30.545Z,1.40
2023-03-16T15:45:59.678Z,1.40
2023-03-16T15:48:26.930Z,1.60
2023-03-16T15:50:56.956Z,1.50
2023-03-16T15:53:39.969Z,1.30
2023-03-16T15:56:16.526Z,1.80
2023-03-16T15:58:45.842Z,1.30
2023-03-16T16:01:27.510Z,1.00
2023-03-16T16:03:55.255Z,1.77
2023-03-16T16:06:22.809Z,1.60
2023-03-16T16:08:49.841Z,1.40
2023-03-16T16:11:28.011Z,1.70
2023-03-16T16:13:56.937Z,1.40
2023-03-16T16:16:26.904Z,1.53
2023-03-16T16:18:53.484Z,1.67
2023-03-16T16:21:24.541Z,1.27
2023-03-16T16:23:52.729Z,1.87
2023-03-16T16:26:48.328Z,1.40
2023-03-16T16:29:23.380Z,1.23
2023-03-16T16:31:51.910Z,2.00
2023-03-16T16:34:21.458Z,2.20
2023-03-16T16:36:48.554Z,2.30
2023-03-16T16:39:15.485Z,2.33
2023-03-16T16:41:43.064Z,2.30
2023-03-16T16:44:24.934Z,1.87
2023-03-16T16:46:53.576Z,1.50
2023-03-16T16:49:22.458Z,2.50
2023-03-16T16:51:49.307Z,2.37
2023-03-16T16:54:24.179Z,1.97
2023-03-16T16:56:53.166Z,1.40
2023-03-16T16:59:25.650Z,1.40
2023-03-16T17:01:58.053Z,1.80
2023-03-16T17:04:27.413Z,1.50
2023-03-16T17:07:00.624Z,1.47
2023-03-16T17:09:28.432Z,1.10
2023-03-16T17:11:58.644Z,1.77
2023-03-16T17:14:27.547Z,1.43
2023-03-16T17:16:54.366Z,1.93
2023-03-16T17:19:23.982Z,1.67
2023-03-16T17:21:52.110Z,1.90
2023-03-16T17:24:18.995Z,1.53
2023-03-16T17:26:55.205Z,1.20
2023-03-16T17:29:27.890Z,1.80
2023-03-16T17:31:54.512Z,1.50
2023-03-16T17:34:26.365Z,1.67
2023-03-16T17:36:53.580Z,1.90
2023-03-16T17:39:21.477Z,1.10
2023-03-16T17:41:56.457Z,1.80
2023-03-16T17:44:27.528Z,1.43
2023-03-16T17:46:54.334Z,1.90
2023-03-16T17:49:24.182Z,1.60
2023-03-16T17:51:50.763Z,2.13
2023-03-16T17:54:17.415Z,2.33
2023-03-16T17:56:45.885Z,1.70
2023-03-16T17:59:22.622Z,1.60
2023-03-16T18:01:49.269Z,1.67
2023-03-16T18:04:21.554Z,1.47
2023-03-16T18:06:49.108Z,1.63
2023-03-16T18:09:17.745Z,2.30
2023-03-16T18:11:47.475Z,1.80
2023-03-16T18:14:34.926Z,2.27
2023-03-16T18:17:21.704Z,1.90
2023-03-16T18:19:49.602Z,2.70
2023-03-16T18:22:21.949Z,2.27
2023-03-16T18:24:49.570Z,1.60
2023-03-16T18:27:16.620Z,2.53
2023-03-16T18:29:44.323Z,2.10
2023-03-16T18:32:24.275Z,2.40
2023-03-16T18:34:52.417Z,3.03
2023-03-16T18:37:24.376Z,2.03
2023-03-16T18:39:52.757Z,1.70
2023-03-16T18:42:25.728Z,1.60
2023-03-16T18:44:52.583Z,1.60
2023-03-16T18:47:22.164Z,2.80
2023-03-16T18:49:52.787Z,2.03
2023-03-16T18:52:29.015Z,1.40
2023-03-16T18:54:57.641Z,1.83
2023-03-16T18:57:27.143Z,1.80
2023-03-16T18:59:54.107Z,1.70
2023-03-16T19:02:38.845Z,1.90
2023-03-16T19:05:15.464Z,1.60
2023-03-16T19:07:44.630Z,2.00
2023-03-16T19:10:27.449Z,1.50
2023-03-16T19:12:55.304Z,1.80
2023-03-16T19:15:35.675Z,2.03
2023-03-16T19:18:02.774Z,1.90
2023-03-16T19:20:32.067Z,1.57
2023-03-16T19:23:29.582Z,1.80
2023-03-16T19:25:57.808Z,2.20
2023-03-16T19:28:34.013Z,1.60
2023-03-16T19:31:02.064Z,1.60
2023-03-16T19:33:29.130Z,1.73
2023-03-16T19:35:56.775Z,2.03
2023-03-16T19:38:25.697Z,2.00
2023-03-16T19:40:56.280Z,1.83
2023-03-16T19:43:24.007Z,2.40
2023-03-16T19:45:51.390Z,1.60
2023-03-16T19:48:22.462Z,1.23
2023-03-16T19:50:50.557Z,1.60
2023-03-16T19:53:19.818Z,1.60
2023-03-16T19:55:48.326Z,1.73
2023-03-16T19:58:58.645Z,2.00
2023-03-16T20:01:32.408Z,1.60
2023-03-16T20:03:59.652Z,1.60
2023-03-16T20:06:27.070Z,1.80
2023-03-16T20:08:53.728Z,2.00
2023-03-16T20:11:28.136Z,2.17
2023-03-16T20:13:56.161Z,1.60
2023-03-16T20:16:34.023Z,2.20
2023-03-16T20:19:09.954Z,1.50
2023-03-16T20:21:36.585Z,2.17
2023-03-16T20:24:03.423Z,1.57
2023-03-16T20:26:32.670Z,1.80
2023-03-16T20:29:00.718Z,1.87
2023-03-16T20:31:31.343Z,1.60
2023-03-16T20:33:58.850Z,2.00
2023-03-16T20:36:26.812Z,1.83
2023-03-16T20:38:55.337Z,1.93
2023-03-16T20:41:32.939Z,2.00
2023-03-16T20:44:01.751Z,2.20
2023-03-16T20:46:30.891Z,1.90
2023-03-16T20:49:00.505Z,2.20
2023-03-16T20:51:28.627Z,1.90
2023-03-16T20:53:55.392Z,2.20
2023-03-16T20:56:25.756Z,1.87
2023-03-16T20:58:54.668Z,2.30
2023-03-16T21:01:23.349Z,2.53
2023-03-16T21:03:59.955Z,2.63
2023-03-16T21:06:29.836Z,2.87
2023-03-16T21:08:59.193Z,2.00
2023-03-16T21:11:37.821Z,2.27
2023-03-16T21:14:07.916Z,3.00
2023-03-16T21:16:34.679Z,2.60
2023-03-16T21:19:05.900Z,2.20
2023-03-16T21:21:32.472Z,2.30
2023-03-16T21:24:02.862Z,2.87
2023-03-16T21:26:30.791Z,2.73
2023-03-16T21:29:00.591Z,2.80
2023-03-16T21:31:27.898Z,2.90
2023-03-16T21:33:55.356Z,2.60
2023-03-16T21:36:26.445Z,3.10
2023-03-16T21:38:54.081Z,3.10
2023-03-16T21:41:21.074Z,3.27
2023-03-16T21:43:49.787Z,2.83
2023-03-16T21:46:23.652Z,2.63
2023-03-16T21:48:52.891Z,3.23
2023-03-16T21:51:28.488Z,2.53
2023-03-16T21:53:55.116Z,2.57
2023-03-16T21:56:23.786Z,3.60
2023-03-16T21:58:52.080Z,3.33
2023-03-16T22:01:27.779Z,2.73
2023-03-16T22:03:57.717Z,3.10
2023-03-16T22:06:27.894Z,2.63
2023-03-16T22:08:55.009Z,2.63
2023-03-16T22:11:30.641Z,2.63
2023-03-16T22:13:58.956Z,2.67
2023-03-16T22:16:30.104Z,2.70
2023-03-16T22:18:57.912Z,2.60
2023-03-16T22:21:39.006Z,2.63
2023-03-16T22:24:12.446Z,2.27
2023-03-16T22:26:39.428Z,2.37
2023-03-16T22:29:19.752Z,2.57
2023-03-16T22:31:47.343Z,2.77
2023-03-16T22:34:37.124Z,2.50
2023-03-16T22:37:04.617Z,2.40
2023-03-16T22:39:37.547Z,2.50
2023-03-16T22:42:31.248Z,2.50
2023-03-16T22:44:58.370Z,2.40
2023-03-16T22:47:28.486Z,2.50
2023-03-16T22:49:55.145Z,2.20
2023-03-16T22:52:27.930Z,2.37
2023-03-16T22:54:54.564Z,2.50
2023-03-16T22:57:21.534Z,2.00
2023-03-16T22:59:48.547Z,1.97
2023-03-16T23:02:16.023Z,2.30
2023-03-16T23:04:42.613Z,1.90
2023-03-16T23:07:12.382Z,2.10
2023-03-16T23:09:39.157Z,2.33
2023-03-16T23:12:15.496Z,1.90
2023-03-16T23:14:43.216Z,2.23
2023-03-16T23:17:18.677Z,1.90
2023-03-16T23:19:45.894Z,1.60
2023-03-16T23:22:12.611Z,2.10
2023-03-16T23:24:39.242Z,1.93
2023-03-16T23:27:18.362Z,1.97
2023-03-16T23:29:44.987Z,2.27
2023-03-16T23:32:11.887Z,2.33
2023-03-16T23:34:38.455Z,1.70
2023-03-16T23:37:05.024Z,1.97
2023-03-16T23:39:31.573Z,1.93
2023-03-16T23:41:58.340Z,1.90
2023-03-16T23:44:27.406Z,1.70
2023-03-16T23:46:54.486Z,1.70
2023-03-16T23:49:25.247Z,2.17
2023-03-16T23:51:54.029Z,1.80
2023-03-16T23:54:23.131Z,1.80
2023-03-16T23:56:50.514Z,1.60
2023-03-16T23:59:17.470Z,1.60
